createdAt,value
2023-03-01T00:00:08.045Z,103064.50
2023-03-01T00:00:47.555Z,103060.22
2023-03-01T00:01:22.264Z,103048.00
2023-03-01T00:01:54.289Z,103060.72
2023-03-01T00:02:26.088Z,103054.63
2023-03-01T00:02:57.636Z,103058.78
2023-03-01T00:03:29.261Z,103056.94
2023-03-01T00:04:00.908Z,103062.22
2023-03-01T00:04:32.581Z,103061.25
2023-03-01T00:05:04.678Z,103058.19
2023-03-01T00:05:36.335Z,103061.50
2023-03-01T00:06:07.992Z,103066.09
2023-03-01T00:06:39.680Z,103063.53
2023-03-01T00:07:11.260Z,103058.47
2023-03-01T00:07:42.834Z,103058.63
2023-03-01T00:08:14.430Z,103051.88
2023-03-01T00:08:46.086Z,103052.97
2023-03-01T00:09:18.204Z,103064.50
2023-03-01T00:09:50.429Z,103049.00
2023-03-01T00:10:22.133Z,103054.22
2023-03-01T00:11:05.488Z,103056.28
2023-03-01T00:11:37.052Z,103048.63
2023-03-01T00:12:08.760Z,103055.50
2023-03-01T00:12:40.314Z,103056.00
2023-03-01T00:13:11.950Z,103056.38
2023-03-01T00:13:44.729Z,103049.84
2023-03-01T00:14:18.386Z,103052.94
2023-03-01T00:14:50.086Z,103055.94
2023-03-01T00:15:21.670Z,103059.44
2023-03-01T00:15:53.302Z,103055.81
2023-03-01T00:16:31.241Z,103054.44
2023-03-01T00:17:03.043Z,103047.59
2023-03-01T00:17:34.741Z,103054.31
2023-03-01T00:18:06.282Z,103049.53
2023-03-01T00:18:37.841Z,103051.31
2023-03-01T00:19:16.705Z,103053.56
2023-03-01T00:19:48.290Z,103060.31
2023-03-01T00:20:19.950Z,103052.94
2023-03-01T00:20:52.988Z,103051.19
2023-03-01T00:21:25.235Z,103057.22
2023-03-01T00:21:56.781Z,103055.53
2023-03-01T00:22:29.469Z,103047.59
2023-03-01T00:23:01.152Z,103049.81
2023-03-01T00:23:35.326Z,103049.28
2023-03-01T00:24:07.346Z,103051.31
2023-03-01T00:24:38.948Z,103050.59
2023-03-01T00:25:10.501Z,103050.59
2023-03-01T00:25:43.251Z,103049.81
2023-03-01T00:26:15.822Z,103055.00
2023-03-01T00:26:47.631Z,103050.06
2023-03-01T00:27:19.169Z,103049.69
2023-03-01T00:27:50.778Z,103054.09
2023-03-01T00:28:22.534Z,103058.13
2023-03-01T00:28:54.868Z,103048.84
2023-03-01T00:29:26.543Z,103051.38
2023-03-01T00:29:58.190Z,103063.47
2023-03-01T00:30:30.711Z,103054.59
2023-03-01T00:31:12.802Z,103053.31
2023-03-01T00:31:44.413Z,103052.53
2023-03-01T00:32:15.952Z,103054.34
2023-03-01T00:32:47.487Z,103045.97
2023-03-01T00:33:19.376Z,103050.78
2023-03-01T00:33:58.016Z,103050.41
2023-03-01T00:34:29.605Z,103054.84
2023-03-01T00:35:01.199Z,103056.31
2023-03-01T00:35:36.016Z,103053.38
2023-03-01T00:36:07.958Z,103058.25
2023-03-01T00:36:39.688Z,103054.75
2023-03-01T00:37:11.702Z,103059.81
2023-03-01T00:37:43.346Z,103057.09
2023-03-01T00:38:14.862Z,103056.97
2023-03-01T00:38:46.756Z,103046.81
2023-03-01T00:39:18.396Z,103046.94
2023-03-01T00:39:50.089Z,103049.56
2023-03-01T00:40:21.678Z,103053.47
2023-03-01T00:40:53.222Z,103043.66
2023-03-01T00:41:27.476Z,103051.72
2023-03-01T00:41:59.177Z,103051.28
2023-03-01T00:42:30.746Z,103050.44
2023-03-01T00:43:02.347Z,103048.13
2023-03-01T00:43:37.745Z,103043.09
2023-03-01T00:44:09.637Z,103047.41
2023-03-01T00:44:41.175Z,103040.84
2023-03-01T00:45:14.244Z,103044.13
2023-03-01T00:45:45.870Z,103047.00
2023-03-01T00:46:20.699Z,103049.75
2023-03-01T00:46:52.302Z,103040.50
2023-03-01T00:47:23.942Z,103047.25
2023-03-01T00:47:55.605Z,103036.34
2023-03-01T00:48:27.121Z,103042.72
2023-03-01T00:48:58.747Z,103042.22
2023-03-01T00:49:30.320Z,103041.59
2023-03-01T00:50:01.873Z,103030.84
2023-03-01T00:50:33.543Z,103036.09
2023-03-01T00:51:10.963Z,103038.69
2023-03-01T00:51:42.693Z,103035.13
2023-03-01T00:52:14.312Z,103035.25
2023-03-01T00:52:46.166Z,103036.47
2023-03-01T00:53:17.686Z,103026.66
2023-03-01T00:53:52.261Z,103031.34
2023-03-01T00:54:24.002Z,103034.84
2023-03-01T00:54:55.592Z,103035.75
2023-03-01T00:55:27.248Z,103028.16
2023-03-01T00:55:59.329Z,103030.88
2023-03-01T00:56:32.065Z,103037.06
2023-03-01T00:57:04.019Z,103032.00
2023-03-01T00:57:35.615Z,103033.06
2023-03-01T00:58:07.169Z,103036.03
2023-03-01T00:58:39.290Z,103031.47
2023-03-01T00:59:10.867Z,103036.69
2023-03-01T00:59:42.391Z,103034.66
2023-03-01T01:00:14.300Z,103039.56
2023-03-01T01:00:45.855Z,103031.47
2023-03-01T01:01:20.448Z,103031.97
2023-03-01T01:01:52.324Z,103030.44
2023-03-01T01:02:24.096Z,103033.09
2023-03-01T01:02:55.782Z,103033.44
2023-03-01T01:03:27.418Z,103037.31
2023-03-01T01:04:01.947Z,103037.06
2023-03-01T01:04:33.532Z,103029.69
2023-03-01T01:05:06.145Z,103030.81
2023-03-01T01:05:38.394Z,103035.09
2023-03-01T01:06:18.200Z,103035.28
2023-03-01T01:06:49.877Z,103033.81
2023-03-01T01:07:21.523Z,103031.72
2023-03-01T01:07:53.095Z,103029.22
2023-03-01T01:08:24.646Z,103031.47
2023-03-01T01:08:56.782Z,103027.81
2023-03-01T01:09:28.346Z,103030.44
2023-03-01T01:10:00.036Z,103026.44
2023-03-01T01:10:31.572Z,103031.31
2023-03-01T01:11:03.285Z,103033.50
2023-03-01T01:11:36.349Z,103022.19
2023-03-01T01:12:08.288Z,103025.28
2023-03-01T01:12:39.843Z,103016.69
2023-03-01T01:13:11.740Z,103014.22
2023-03-01T01:13:45.825Z,103022.19
2023-03-01T01:14:18.201Z,103017.69
2023-03-01T01:14:49.765Z,103015.84
2023-03-01T01:15:21.366Z,103020.06
2023-03-01T01:15:52.957Z,103011.63
2023-03-01T01:16:27.134Z,103021.25
2023-03-01T01:16:59.084Z,103013.44
2023-03-01T01:17:30.637Z,103015.28
2023-03-01T01:18:02.627Z,103015.56
2023-03-01T01:18:34.205Z,103018.94
2023-03-01T01:19:05.898Z,103012.31
2023-03-01T01:19:37.471Z,103014.16
2023-03-01T01:20:09.912Z,103007.66
2023-03-01T01:20:41.574Z,103011.03
2023-03-01T01:21:17.289Z,102998.66
2023-03-01T01:21:49.367Z,103007.78
2023-03-01T01:22:20.998Z,103009.19
2023-03-01T01:22:52.644Z,103004.00
2023-03-01T01:23:24.278Z,103000.47
2023-03-01T01:23:57.799Z,103002.31
2023-03-01T01:24:29.386Z,103000.38
2023-03-01T01:25:01.020Z,102995.16
2023-03-01T01:25:35.718Z,103003.84
2023-03-01T01:26:19.205Z,103000.47
2023-03-01T01:26:50.767Z,102999.56
2023-03-01T01:27:22.311Z,102998.53
2023-03-01T01:27:53.878Z,103004.13
2023-03-01T01:28:25.416Z,103009.19
2023-03-01T01:28:57.363Z,103000.63
2023-03-01T01:29:29.971Z,103003.16
2023-03-01T01:30:01.513Z,103010.88
2023-03-01T01:30:33.129Z,103005.56
2023-03-01T01:31:05.695Z,103003.59
2023-03-01T01:31:39.058Z,103001.78
2023-03-01T01:32:10.773Z,103000.03
2023-03-01T01:32:42.422Z,103001.16
2023-03-01T01:33:13.996Z,102997.66
2023-03-01T01:33:46.489Z,102995.50
2023-03-01T01:34:21.628Z,103004.69
2023-03-01T01:34:53.216Z,102994.56
2023-03-01T01:35:24.832Z,103004.09
2023-03-01T01:35:56.575Z,103007.91
2023-03-01T01:36:28.653Z,103000.63
2023-03-01T01:37:03.723Z,103002.00
2023-03-01T01:37:35.503Z,103006.78
2023-03-01T01:38:07.170Z,103001.94
2023-03-01T01:38:39.499Z,103003.25
2023-03-01T01:39:14.161Z,103008.53
2023-03-01T01:39:45.886Z,103004.41
2023-03-01T01:40:17.474Z,103007.78
2023-03-01T01:40:50.260Z,103008.41
2023-03-01T01:41:23.228Z,103009.44
2023-03-01T01:41:54.892Z,103007.34
2023-03-01T01:42:26.820Z,103006.50
2023-03-01T01:42:58.460Z,103009.69
2023-03-01T01:43:36.520Z,103004.69
2023-03-01T01:44:24.411Z,103002.44
2023-03-01T01:45:40.947Z,103007.41
2023-03-01T01:46:33.699Z,103000.66
2023-03-01T01:47:18.005Z,102997.91
2023-03-01T01:47:49.615Z,103000.44
2023-03-01T01:48:23.502Z,102996.34
2023-03-01T01:48:58.742Z,103002.47
2023-03-01T01:49:30.220Z,102998.31
2023-03-01T01:50:02.248Z,103005.31
2023-03-01T01:50:38.810Z,102995.41
2023-03-01T01:51:19.459Z,103000.88
2023-03-01T01:51:53.380Z,103001.78
2023-03-01T01:52:28.718Z,103002.81
2023-03-01T01:53:00.269Z,102998.66
2023-03-01T01:53:31.983Z,102998.66
2023-03-01T01:54:03.628Z,103003.97
2023-03-01T01:54:50.350Z,103006.56
2023-03-01T01:55:25.178Z,103004.03
2023-03-01T01:56:00.013Z,103013.53
2023-03-01T01:56:31.985Z,103008.00
2023-03-01T01:57:17.420Z,103011.06
2023-03-01T01:57:57.607Z,103007.88
2023-03-01T01:58:30.749Z,103005.22
2023-03-01T01:59:02.620Z,103003.72
2023-03-01T01:59:34.806Z,103003.06
2023-03-01T02:00:09.880Z,103005.66
2023-03-01T02:00:50.849Z,103003.72
2023-03-01T02:01:22.472Z,103003.44
2023-03-01T02:01:55.573Z,103002.19
2023-03-01T02:02:27.637Z,103000.16
2023-03-01T02:03:06.267Z,102990.25
2023-03-01T02:03:43.115Z,102999.75
2023-03-01T02:04:14.799Z,102991.53
2023-03-01T02:04:48.553Z,102994.78
2023-03-01T02:06:00.520Z,102999.41
2023-03-01T02:06:35.361Z,102994.09
2023-03-01T02:07:21.564Z,102992.06
2023-03-01T02:07:53.261Z,103000.38
2023-03-01T02:08:28.109Z,102998.34
2023-03-01T02:09:08.137Z,102999.19
2023-03-01T02:09:40.196Z,102993.16
2023-03-01T02:10:11.891Z,102989.44
2023-03-01T02:10:43.953Z,102987.47
2023-03-01T02:11:16.004Z,102994.44
2023-03-01T02:11:48.378Z,102994.25
2023-03-01T02:12:23.259Z,102990.06
2023-03-01T02:12:55.375Z,102991.75
2023-03-01T02:13:27.732Z,102986.47
2023-03-01T02:14:00.013Z,102983.31
2023-03-01T02:14:31.601Z,102985.72
2023-03-01T02:15:03.732Z,102986.44
2023-03-01T02:15:37.555Z,102989.28
2023-03-01T02:16:11.130Z,102985.59
2023-03-01T02:16:43.258Z,102987.59
2023-03-01T02:17:17.044Z,102991.91
2023-03-01T02:17:49.310Z,102987.75
2023-03-01T02:18:22.486Z,102980.72
2023-03-01T02:18:54.461Z,102984.16
2023-03-01T02:19:35.379Z,102981.50
2023-03-01T02:20:25.439Z,102982.19
2023-03-01T02:21:21.695Z,102982.41
2023-03-01T02:22:07.676Z,102981.50
2023-03-01T02:22:40.241Z,102980.72
2023-03-01T02:23:12.154Z,102975.50
2023-03-01T02:23:44.462Z,102978.09
2023-03-01T02:24:38.333Z,102981.34
2023-03-01T02:25:24.682Z,102983.94
2023-03-01T02:26:10.434Z,102981.41
2023-03-01T02:26:46.259Z,102981.66
2023-03-01T02:27:19.177Z,102978.81
2023-03-01T02:28:08.728Z,102977.50
2023-03-01T02:28:42.171Z,102981.41
2023-03-01T02:29:13.716Z,102972.41
2023-03-01T02:29:45.258Z,102974.31
2023-03-01T02:30:20.250Z,102972.31
2023-03-01T02:31:10.829Z,102973.59
2023-03-01T02:31:42.579Z,102974.94
2023-03-01T02:32:14.887Z,102976.63
2023-03-01T02:32:47.088Z,102972.19
2023-03-01T02:33:18.677Z,102972.72
2023-03-01T02:33:50.367Z,102971.91
2023-03-01T02:34:26.118Z,102966.47
2023-03-01T02:34:59.392Z,102975.75
2023-03-01T02:35:33.852Z,102968.28
2023-03-01T02:36:10.967Z,102971.56
2023-03-01T02:36:56.024Z,102969.06
2023-03-01T02:37:28.052Z,102978.69
2023-03-01T02:38:02.441Z,102982.06
2023-03-01T02:38:34.043Z,102975.16
2023-03-01T02:39:08.610Z,102973.47
2023-03-01T02:39:42.987Z,102975.94
2023-03-01T02:40:18.451Z,102975.03
2023-03-01T02:40:52.288Z,102970.59
2023-03-01T02:41:24.963Z,102976.50
2023-03-01T02:41:57.955Z,102971.22
2023-03-01T02:42:34.229Z,102961.50
2023-03-01T02:43:07.424Z,102971.91
2023-03-01T02:43:39.076Z,102975.28
2023-03-01T02:44:10.651Z,102969.66
2023-03-01T02:44:42.463Z,102978.03
2023-03-01T02:45:14.104Z,102976.44
2023-03-01T02:45:53.681Z,102970.16
2023-03-01T02:46:26.735Z,102972.06
2023-03-01T02:47:02.539Z,102972.09
2023-03-01T02:47:34.153Z,102965.94
2023-03-01T02:48:05.952Z,102960.59
2023-03-01T02:48:57.964Z,102960.19
2023-03-01T02:49:32.829Z,102963.78
2023-03-01T02:50:14.358Z,102960.34
2023-03-01T02:51:01.271Z,102961.53
2023-03-01T02:51:51.420Z,102964.69
2023-03-01T02:52:42.415Z,102953.19
2023-03-01T02:53:22.654Z,102953.69
2023-03-01T02:54:22.551Z,102952.66
2023-03-01T02:54:57.457Z,102950.97
2023-03-01T02:55:29.295Z,102953.28
2023-03-01T02:56:02.878Z,102951.59
2023-03-01T02:56:35.731Z,102955.75
2023-03-01T02:57:08.476Z,102955.75
2023-03-01T02:57:42.124Z,102949.50
2023-03-01T02:58:13.750Z,102948.72
2023-03-01T02:58:52.519Z,102948.72
2023-03-01T02:59:28.445Z,102956.38
2023-03-01T03:00:08.074Z,102956.91
2023-03-01T03:00:46.537Z,102954.78
2023-03-01T03:01:20.466Z,102955.31
2023-03-01T03:01:52.173Z,102956.88
2023-03-01T03:02:37.261Z,102951.53
2023-03-01T03:03:15.170Z,102955.75
2023-03-01T03:03:47.513Z,102952.16
2023-03-01T03:04:21.909Z,102955.53
2023-03-01T03:04:54.638Z,102954.13
2023-03-01T03:05:31.037Z,102959.44
2023-03-01T03:06:03.367Z,102955.47
2023-03-01T03:06:35.800Z,102954.63
2023-03-01T03:07:07.488Z,102958.28
2023-03-01T03:07:41.672Z,102961.41
2023-03-01T03:08:13.491Z,102956.38
2023-03-01T03:08:45.270Z,102953.72
2023-03-01T03:09:17.811Z,102964.09
2023-03-01T03:09:49.494Z,102959.38
2023-03-01T03:10:26.292Z,102959.69
2023-03-01T03:10:57.987Z,102960.75
2023-03-01T03:11:30.519Z,102956.47
2023-03-01T03:12:02.464Z,102960.53
2023-03-01T03:12:34.540Z,102953.34
2023-03-01T03:13:09.436Z,102957.38
2023-03-01T03:13:49.096Z,102952.94
2023-03-01T03:14:21.490Z,102950.41
2023-03-01T03:14:53.915Z,102955.53
2023-03-01T03:15:27.083Z,102951.69
2023-03-01T03:15:59.007Z,102948.38
2023-03-01T03:16:31.069Z,102947.75
2023-03-01T03:17:07.455Z,102949.69
2023-03-01T03:17:40.959Z,102949.69
2023-03-01T03:18:14.868Z,102945.63
2023-03-01T03:18:46.481Z,102940.41
2023-03-01T03:19:19.617Z,102941.41
2023-03-01T03:19:51.251Z,102937.47
2023-03-01T03:20:25.331Z,102952.09
2023-03-01T03:20:56.957Z,102941.63
2023-03-01T03:21:28.494Z,102941.91
2023-03-01T03:22:00.330Z,102937.84
2023-03-01T03:22:32.567Z,102938.41
2023-03-01T03:23:04.508Z,102942.41
2023-03-01T03:23:36.553Z,102939.81
2023-03-01T03:24:08.096Z,102937.34
2023-03-01T03:24:40.598Z,102937.63
2023-03-01T03:25:12.712Z,102936.63
2023-03-01T03:25:44.311Z,102939.81
2023-03-01T03:26:16.203Z,102945.28
2023-03-01T03:26:47.874Z,102940.22
2023-03-01T03:27:19.438Z,102937.03
2023-03-01T03:27:57.575Z,102934.59
2023-03-01T03:28:29.144Z,102938.63
2023-03-01T03:29:00.839Z,102938.91
2023-03-01T03:29:32.531Z,102935.53
2023-03-01T03:30:09.795Z,102937.22
2023-03-01T03:30:42.531Z,102943.38
2023-03-01T03:31:14.112Z,102940.00
2023-03-01T03:31:45.725Z,102936.91
2023-03-01T03:32:17.389Z,102939.63
2023-03-01T03:32:53.389Z,102938.06
2023-03-01T03:33:25.503Z,102939.88
2023-03-01T03:33:57.752Z,102936.38
2023-03-01T03:34:29.455Z,102946.91
2023-03-01T03:35:01.101Z,102950.28
2023-03-01T03:35:35.016Z,102941.97
2023-03-01T03:36:06.947Z,102951.31
2023-03-01T03:36:38.517Z,102950.34
2023-03-01T03:37:30.097Z,102948.72
2023-03-01T03:38:06.750Z,102950.66
2023-03-01T03:38:39.122Z,102951.50
2023-03-01T03:39:10.657Z,102945.34
2023-03-01T03:39:42.210Z,102950.53
2023-03-01T03:40:16.411Z,102952.28
2023-03-01T03:41:08.250Z,102951.50
2023-03-01T03:41:39.905Z,102948.00
2023-03-01T03:42:11.523Z,102941.97
2023-03-01T03:42:43.058Z,102942.75
2023-03-01T03:43:16.868Z,102941.00
2023-03-01T03:43:49.899Z,102943.75
2023-03-01T03:44:21.994Z,102941.06
2023-03-01T03:44:53.547Z,102947.94
2023-03-01T03:45:25.291Z,102943.75
2023-03-01T03:45:58.190Z,102944.00
2023-03-01T03:46:29.778Z,102941.34
2023-03-01T03:47:01.330Z,102942.19
2023-03-01T03:47:32.906Z,102946.66
2023-03-01T03:48:06.844Z,102948.34
2023-03-01T03:48:44.942Z,102941.34
2023-03-01T03:49:16.589Z,102951.78
2023-03-01T03:49:48.166Z,102951.84
2023-03-01T03:50:20.208Z,102949.31
2023-03-01T03:50:56.808Z,102944.84
2023-03-01T03:51:28.495Z,102944.91
2023-03-01T03:52:00.154Z,102944.44
2023-03-01T03:52:31.659Z,102943.09
2023-03-01T03:53:05.579Z,102952.44
2023-03-01T03:53:37.208Z,102948.16
2023-03-01T03:54:08.863Z,102951.00
2023-03-01T03:54:41.742Z,102952.69
2023-03-01T03:55:13.499Z,102945.69
2023-03-01T03:55:45.594Z,102952.81
2023-03-01T03:56:17.224Z,102949.81
2023-03-01T03:56:48.734Z,102941.31
2023-03-01T03:57:20.346Z,102942.03
2023-03-01T03:57:52.534Z,102948.47
2023-03-01T03:58:25.381Z,102943.66
2023-03-01T03:58:56.975Z,102942.91
2023-03-01T03:59:28.733Z,102942.06
2023-03-01T04:00:00.703Z,102932.38
2023-03-01T04:00:32.332Z,102942.09
2023-03-01T04:01:04.195Z,102939.75
2023-03-01T04:01:35.800Z,102945.94
2023-03-01T04:02:09.785Z,102937.88
2023-03-01T04:02:44.351Z,102936.81
2023-03-01T04:03:17.696Z,102945.66
2023-03-01T04:03:49.264Z,102937.22
2023-03-01T04:04:20.784Z,102937.22
2023-03-01T04:04:52.348Z,102936.50
2023-03-01T04:05:24.401Z,102937.22
2023-03-01T04:05:58.880Z,102934.88
2023-03-01T04:06:31.113Z,102932.69
2023-03-01T04:07:02.986Z,102929.03
2023-03-01T04:07:35.799Z,102934.38
2023-03-01T04:08:08.565Z,102925.94
2023-03-01T04:08:40.401Z,102928.13
2023-03-01T04:09:11.960Z,102933.56
2023-03-01T04:09:44.410Z,102932.00
2023-03-01T04:10:18.162Z,102933.56
2023-03-01T04:10:51.685Z,102932.00
2023-03-01T04:11:29.292Z,102938.78
2023-03-01T04:12:00.829Z,102933.69
2023-03-01T04:12:35.037Z,102934.47
2023-03-01T04:13:07.888Z,102932.28
2023-03-01T04:13:39.509Z,102930.19
2023-03-01T04:14:11.119Z,102930.72
2023-03-01T04:14:42.662Z,102929.06
2023-03-01T04:15:14.230Z,102929.41
2023-03-01T04:15:46.080Z,102932.72
2023-03-01T04:16:18.756Z,102924.00
2023-03-01T04:16:50.485Z,102924.22
2023-03-01T04:17:22.022Z,102930.22
2023-03-01T04:17:55.013Z,102940.47
2023-03-01T04:18:26.986Z,102932.16
2023-03-01T04:19:00.673Z,102926.66
2023-03-01T04:19:37.082Z,102937.22
2023-03-01T04:20:12.055Z,102933.69
2023-03-01T04:20:44.101Z,102939.81
2023-03-01T04:21:15.736Z,102930.19
2023-03-01T04:21:47.293Z,102936.72
2023-03-01T04:22:19.399Z,102931.22
2023-03-01T04:22:52.439Z,102934.03
2023-03-01T04:23:24.137Z,102931.88
2023-03-01T04:23:55.645Z,102932.22
2023-03-01T04:24:27.180Z,102932.78
2023-03-01T04:24:59.273Z,102930.38
2023-03-01T04:25:30.800Z,102926.81
2023-03-01T04:26:03.172Z,102926.03
2023-03-01T04:26:34.887Z,102920.34
2023-03-01T04:27:06.434Z,102919.16
2023-03-01T04:27:37.964Z,102917.72
2023-03-01T04:28:10.598Z,102924.88
2023-03-01T04:28:46.154Z,102919.28
2023-03-01T04:29:17.880Z,102921.06
2023-03-01T04:29:49.548Z,102916.78
2023-03-01T04:30:21.377Z,102915.22
2023-03-01T04:30:54.328Z,102918.09
2023-03-01T04:31:25.994Z,102903.53
2023-03-01T04:31:57.651Z,102916.84
2023-03-01T04:32:29.298Z,102912.72
2023-03-01T04:33:00.968Z,102912.50
2023-03-01T04:33:32.545Z,102913.00
2023-03-01T04:34:04.145Z,102912.09
2023-03-01T04:34:35.700Z,102912.81
2023-03-01T04:35:07.684Z,102912.75
2023-03-01T04:35:40.043Z,102913.72
2023-03-01T04:36:13.351Z,102910.28
2023-03-01T04:36:45.262Z,102914.19
2023-03-01T04:37:16.976Z,102915.78
2023-03-01T04:37:48.503Z,102912.06
2023-03-01T04:38:20.933Z,102912.00
2023-03-01T04:38:52.953Z,102921.22
2023-03-01T04:39:24.591Z,102912.41
2023-03-01T04:39:56.172Z,102919.16
2023-03-01T04:40:27.864Z,102916.47
2023-03-01T04:40:59.378Z,102918.91
2023-03-01T04:41:31.000Z,102911.19
2023-03-01T04:42:02.552Z,102918.78
2023-03-01T04:42:34.145Z,102910.84
2023-03-01T04:43:05.876Z,102911.63
2023-03-01T04:43:38.386Z,102911.63
2023-03-01T04:44:10.254Z,102906.50
2023-03-01T04:44:41.803Z,102918.38
2023-03-01T04:45:16.373Z,102904.47
2023-03-01T04:45:48.013Z,102913.44
2023-03-01T04:46:21.501Z,102899.13
2023-03-01T04:46:53.128Z,102903.28
2023-03-01T04:47:24.713Z,102905.75
2023-03-01T04:47:59.192Z,102908.16
2023-03-01T04:48:32.833Z,102899.91
2023-03-01T04:49:04.635Z,102904.19
2023-03-01T04:49:36.214Z,102904.81
2023-03-01T04:50:08.950Z,102904.72
2023-03-01T04:50:40.463Z,102898.75
2023-03-01T04:51:14.519Z,102898.31
2023-03-01T04:51:46.193Z,102898.38
2023-03-01T04:52:17.850Z,102902.25
2023-03-01T04:52:49.545Z,102898.03
2023-03-01T04:53:21.132Z,102897.19
2023-03-01T04:53:52.741Z,102899.88
2023-03-01T04:54:24.533Z,102900.13
2023-03-01T04:54:56.107Z,102895.66
2023-03-01T04:55:28.452Z,102893.47
2023-03-01T04:56:00.548Z,102895.50
2023-03-01T04:56:32.532Z,102899.13
2023-03-01T04:57:04.899Z,102899.28
2023-03-01T04:57:36.452Z,102892.00
2023-03-01T04:58:07.983Z,102890.69
2023-03-01T04:58:39.521Z,102896.53
2023-03-01T04:59:13.704Z,102899.94
2023-03-01T04:59:45.314Z,102896.09
2023-03-01T05:00:23.025Z,102895.75
2023-03-01T05:00:55.472Z,102899.06
2023-03-01T05:01:27.098Z,102893.09
2023-03-01T05:01:58.670Z,102893.56
2023-03-01T05:02:30.508Z,102894.13
2023-03-01T05:03:03.930Z,102893.28
2023-03-01T05:03:35.631Z,102890.31
2023-03-01T05:04:08.326Z,102894.75
2023-03-01T05:04:39.929Z,102890.06
2023-03-01T05:05:11.487Z,102890.19
2023-03-01T05:05:45.225Z,102881.47
2023-03-01T05:06:17.950Z,102891.03
2023-03-01T05:06:49.617Z,102887.84
2023-03-01T05:07:21.194Z,102887.78
2023-03-01T05:07:57.833Z,102892.44
2023-03-01T05:08:29.451Z,102884.19
2023-03-01T05:09:01.136Z,102884.50
2023-03-01T05:09:32.671Z,102890.50
2023-03-01T05:10:04.516Z,102885.63
2023-03-01T05:10:37.341Z,102880.50
2023-03-01T05:11:09.964Z,102886.63
2023-03-01T05:11:41.611Z,102890.38
2023-03-01T05:12:14.246Z,102889.66
2023-03-01T05:12:45.798Z,102885.44
2023-03-01T05:13:21.971Z,102883.88
2023-03-01T05:13:55.936Z,102886.53
2023-03-01T05:14:27.720Z,102894.50
2023-03-01T05:14:59.478Z,102895.63
2023-03-01T05:15:32.605Z,102880.97
2023-03-01T05:16:06.042Z,102882.66
2023-03-01T05:16:38.218Z,102883.44
2023-03-01T05:17:09.931Z,102873.50
2023-03-01T05:17:41.467Z,102873.75
2023-03-01T05:18:13.158Z,102868.69
2023-03-01T05:18:44.748Z,102872.91
2023-03-01T05:19:16.531Z,102876.28
2023-03-01T05:19:48.118Z,102875.31
2023-03-01T05:20:23.830Z,102879.78
2023-03-01T05:20:59.335Z,102880.00
2023-03-01T05:21:31.216Z,102884.34
2023-03-01T05:22:02.882Z,102872.53
2023-03-01T05:22:34.587Z,102883.81
2023-03-01T05:23:06.630Z,102877.00
2023-03-01T05:23:38.788Z,102876.16
2023-03-01T05:24:12.665Z,102880.31
2023-03-01T05:24:44.249Z,102878.69
2023-03-01T05:25:16.024Z,102876.16
2023-03-01T05:25:47.574Z,102872.88
2023-03-01T05:26:28.147Z,102872.94
2023-03-01T05:27:02.397Z,102873.75
2023-03-01T05:27:34.785Z,102874.47
2023-03-01T05:28:08.556Z,102875.91
2023-03-01T05:28:40.672Z,102868.31
2023-03-01T05:29:12.210Z,102869.16
2023-03-01T05:29:43.814Z,102869.22
2023-03-01T05:30:15.860Z,102866.75
2023-03-01T05:30:47.871Z,102866.19
2023-03-01T05:31:19.406Z,102866.25
2023-03-01T05:31:50.952Z,102875.91
2023-03-01T05:32:22.654Z,102870.97
2023-03-01T05:32:56.779Z,102871.75
2023-03-01T05:33:28.950Z,102865.66
2023-03-01T05:34:00.558Z,102867.66
2023-03-01T05:34:34.859Z,102873.91
2023-03-01T05:35:06.839Z,102865.97
2023-03-01T05:35:38.446Z,102875.06
2023-03-01T05:36:10.905Z,102866.50
2023-03-01T05:36:42.411Z,102868.19
2023-03-01T05:37:14.570Z,102871.31
2023-03-01T05:37:48.463Z,102871.69
2023-03-01T05:38:20.990Z,102869.94
2023-03-01T05:38:52.524Z,102872.59
2023-03-01T05:39:26.829Z,102870.00
2023-03-01T05:39:58.488Z,102875.19
2023-03-01T05:40:30.233Z,102870.91
2023-03-01T05:41:01.794Z,102866.75
2023-03-01T05:41:33.440Z,102865.25
2023-03-01T05:42:05.016Z,102869.56
2023-03-01T05:42:37.218Z,102862.94
2023-03-01T05:43:08.975Z,102860.53
2023-03-01T05:43:42.849Z,102864.34
2023-03-01T05:44:14.587Z,102866.84
2023-03-01T05:44:46.345Z,102859.16
2023-03-01T05:45:19.052Z,102861.94
2023-03-01T05:45:50.693Z,102862.16
2023-03-01T05:46:24.512Z,102861.25
2023-03-01T05:46:56.530Z,102858.31
2023-03-01T05:47:28.042Z,102854.59
2023-03-01T05:47:59.987Z,102854.03
2023-03-01T05:48:31.648Z,102853.06
2023-03-01T05:49:03.530Z,102849.88
2023-03-01T05:49:36.211Z,102853.50
2023-03-01T05:50:09.520Z,102849.53
2023-03-01T05:50:43.463Z,102853.13
2023-03-01T05:51:15.089Z,102853.56
2023-03-01T05:51:50.789Z,102850.41
2023-03-01T05:52:22.352Z,102857.63
2023-03-01T05:53:06.730Z,102853.16
2023-03-01T05:53:38.299Z,102856.16
2023-03-01T05:54:10.738Z,102847.66
2023-03-01T05:54:42.285Z,102852.63
2023-03-01T05:55:14.029Z,102854.59
2023-03-01T05:55:47.158Z,102855.16
2023-03-01T05:56:18.761Z,102855.38
2023-03-01T05:56:50.305Z,102855.59
2023-03-01T05:57:21.907Z,102851.44
2023-03-01T05:57:53.437Z,102849.28
2023-03-01T05:58:25.285Z,102853.94
2023-03-01T05:58:56.919Z,102850.44
2023-03-01T05:59:28.453Z,102859.47
2023-03-01T06:00:00.114Z,102850.03
2023-03-01T06:00:32.204Z,102859.91
2023-03-01T06:01:03.825Z,102858.72
2023-03-01T06:01:36.673Z,102856.94
2023-03-01T06:02:08.213Z,102853.66
2023-03-01T06:02:40.955Z,102855.28
2023-03-01T06:03:14.081Z,102860.03
2023-03-01T06:03:45.618Z,102857.72
2023-03-01T06:04:17.232Z,102854.59
2023-03-01T06:04:48.944Z,102860.56
2023-03-01T06:05:20.769Z,102849.97
2023-03-01T06:05:57.350Z,102852.09
2023-03-01T06:06:29.429Z,102853.03
2023-03-01T06:07:01.058Z,102856.13
2023-03-01T06:07:32.806Z,102855.00
2023-03-01T06:08:04.856Z,102853.88
2023-03-01T06:08:36.581Z,102851.28
2023-03-01T06:09:10.196Z,102851.63
2023-03-01T06:09:41.740Z,102855.09
2023-03-01T06:10:13.907Z,102848.34
2023-03-01T06:10:45.490Z,102856.34
2023-03-01T06:11:17.076Z,102853.31
2023-03-01T06:11:48.599Z,102852.06
2023-03-01T06:12:20.269Z,102856.53
2023-03-01T06:12:51.782Z,102854.03
2023-03-01T06:13:24.530Z,102857.47
2023-03-01T06:13:56.121Z,102854.28
2023-03-01T06:14:27.716Z,102854.47
2023-03-01T06:14:59.916Z,102858.94
2023-03-01T06:15:31.516Z,102859.94
2023-03-01T06:16:08.611Z,102858.94
2023-03-01T06:16:40.340Z,102854.81
2023-03-01T06:17:11.914Z,102864.34
2023-03-01T06:17:45.173Z,102852.28
2023-03-01T06:18:16.840Z,102855.91
2023-03-01T06:18:48.361Z,102852.88
2023-03-01T06:19:19.940Z,102862.22
2023-03-01T06:19:51.569Z,102849.25
2023-03-01T06:20:25.065Z,102851.78
2023-03-01T06:20:57.168Z,102852.56